Main page
METAR-TAF:

METAR-TAF

Airports :

Bastia – Poretta Airport

Bastia, France

latitude: 42-33N, longitude: 009-29E, elevation: 8 m

Current weather observation

The report was made 18 minutes ago, at 10:00 UTC
Wind 5 kt from the East, varying between North/Northeast and East/Southeast
Temperature 23°C
Humidity 78%
Pressure 1016 hPa
Visibility 10 km or more
Scattered clouds at a height of 2200 ft
Broken clouds at a height of 2800 ft

METAR: LFKB 191000Z AUTO 08005KT 030V120 9999 SCT022 BKN028 23/19 Q1016 NOSIG

Time: 12:18 (10:18 UTC)

Forecast

The report was made 2 hours and 18 minutes ago, at 08:00 UTC
Forecast valid from 19 at 09 UTC to 20 at 09 UTC
Wind 6 kt from the East/Southeast
Visibility 10 km or more
no clouds below 1500 m and no cumulonimbus
Becoming
from 19 at 18 UTC to 19 at 20 UTC
Wind 4 kt from the West/Southwest

TAF: LFKB 190800Z 1909/2009 12006KT CAVOK TX24/1912Z TN14/2004Z BECMG 1918/1920 24004KT

Weather observations and forecasts of more than 4000 airports (METAR and TAF reports).

The available stations are represented by yellow and red dots on the map.

Hover mouse over dot to see the name of the station.

Then click to see weather observations and forecasts.

To change the map : click on the green buttons with a black cross to zoom in, on the green button with a dash to zoom out, or on the green arrows for adjacent maps.


METAR-TAF: